sensor_id;sensor_type;location;lat;lon;timestamp;P1;durP1;ratioP1;P2;durP2;ratioP2
63906;SDS011;50075;49.484;11.238;2022-09-03T00:05:02;23.73;;;3.97;;
63906;SDS011;50075;49.484;11.238;2022-09-03T00:10:07;23.10;;;3.83;;
63906;SDS011;50075;49.484;11.238;2022-09-03T00:12:41;22.27;;;3.85;;
63906;SDS011;50075;49.484;11.238;2022-09-03T00:15:09;35.27;;;4.90;;
63906;SDS011;50075;49.484;11.238;2022-09-03T00:17:40;27.30;;;4.20;;
63906;SDS011;50075;49.484;11.238;2022-09-03T00:20:11;29.75;;;4.63;;
63906;SDS011;50075;49.484;11.238;2022-09-03T00:22:43;24.98;;;4.13;;
63906;SDS011;50075;49.484;11.238;2022-09-03T00:25:14;28.38;;;4.30;;
63906;SDS011;50075;49.484;11.238;2022-09-03T00:30:15;35.22;;;4.80;;
63906;SDS011;50075;49.484;11.238;2022-09-03T00:32:44;27.77;;;4.10;;
63906;SDS011;50075;49.484;11.238;2022-09-03T00:35:16;30.92;;;4.40;;
63906;SDS011;50075;49.484;11.238;2022-09-03T00:37:49;28.25;;;4.18;;
63906;SDS011;50075;49.484;11.238;2022-09-03T00:40:31;29.33;;;4.30;;
63906;SDS011;50075;49.484;11.238;2022-09-03T00:57:56;26.58;;;4.20;;
63906;SDS011;50075;49.484;11.238;2022-09-03T01:00:40;33.22;;;4.60;;
63906;SDS011;50075;49.484;11.238;2022-09-03T01:03:35;29.80;;;4.15;;
63906;SDS011;50075;49.484;11.238;2022-09-03T01:06:13;30.38;;;5.10;;
63906;SDS011;50075;49.484;11.238;2022-09-03T01:33:46;26.52;;;4.20;;
63906;SDS011;50075;49.484;11.238;2022-09-03T01:36:36;25.75;;;4.28;;
63906;SDS011;50075;49.484;11.238;2022-09-03T01:39:04;32.90;;;4.38;;
63906;SDS011;50075;49.484;11.238;2022-09-03T01:44:38;26.73;;;3.88;;
63906;SDS011;50075;49.484;11.238;2022-09-03T01:50:11;25.60;;;4.00;;
63906;SDS011;50075;49.484;11.238;2022-09-03T01:52:50;23.90;;;4.00;;
63906;SDS011;50075;49.484;11.238;2022-09-03T02:00:26;28.23;;;4.20;;
63906;SDS011;50075;49.484;11.238;2022-09-03T02:02:54;35.70;;;5.05;;
63906;SDS011;50075;49.484;11.238;2022-09-03T02:05:24;28.92;;;4.18;;
63906;SDS011;50075;49.484;11.238;2022-09-03T02:08:04;32.00;;;4.40;;
63906;SDS011;50075;49.484;11.238;2022-09-03T02:10:51;30.45;;;4.45;;
63906;SDS011;50075;49.484;11.238;2022-09-03T02:13:26;34.65;;;5.25;;
63906;SDS011;50075;49.484;11.238;2022-09-03T02:15:55;28.90;;;4.78;;
63906;SDS011;50075;49.484;11.238;2022-09-03T02:21:01;40.85;;;5.68;;
63906;SDS011;50075;49.484;11.238;2022-09-03T02:23:26;33.65;;;4.90;;
63906;SDS011;50075;49.484;11.238;2022-09-03T02:25:56;31.95;;;4.70;;
63906;SDS011;50075;49.484;11.238;2022-09-03T02:28:24;43.40;;;5.88;;
63906;SDS011;50075;49.484;11.238;2022-09-03T02:30:51;28.58;;;4.32;;
63906;SDS011;50075;49.484;11.238;2022-09-03T02:33:17;30.95;;;4.60;;
63906;SDS011;50075;49.484;11.238;2022-09-03T02:35:43;27.42;;;4.35;;
63906;SDS011;50075;49.484;11.238;2022-09-03T02:38:18;26.30;;;4.50;;
63906;SDS011;50075;49.484;11.238;2022-09-03T02:40:46;26.10;;;4.22;;
63906;SDS011;50075;49.484;11.238;2022-09-03T02:43:18;22.92;;;4.03;;
63906;SDS011;50075;49.484;11.238;2022-09-03T02:45:51;28.73;;;4.47;;
63906;SDS011;50075;49.484;11.238;2022-09-03T02:48:22;28.58;;;4.57;;
63906;SDS011;50075;49.484;11.238;2022-09-03T02:50:48;31.02;;;4.78;;
63906;SDS011;50075;49.484;11.238;2022-09-03T02:53:14;27.98;;;4.78;;
63906;SDS011;50075;49.484;11.238;2022-09-03T02:55:40;27.23;;;4.55;;
63906;SDS011;50075;49.484;11.238;2022-09-03T02:58:05;23.08;;;4.13;;
63906;SDS011;50075;49.484;11.238;2022-09-03T03:00:32;33.47;;;5.10;;
63906;SDS011;50075;49.484;11.238;2022-09-03T03:03:00;32.20;;;4.93;;
63906;SDS011;50075;49.484;11.238;2022-09-03T03:05:29;28.17;;;4.63;;
63906;SDS011;50075;49.484;11.238;2022-09-03T03:08:02;19.50;;;3.60;;
63906;SDS011;50075;49.484;11.238;2022-09-03T03:10:27;23.27;;;3.97;;
63906;SDS011;50075;49.484;11.238;2022-09-03T03:12:53;34.08;;;5.38;;
63906;SDS011;50075;49.484;11.238;2022-09-03T03:15:18;25.25;;;4.50;;
63906;SDS011;50075;49.484;11.238;2022-09-03T03:17:44;33.42;;;5.25;;
63906;SDS011;50075;49.484;11.238;2022-09-03T03:20:10;28.98;;;4.80;;
63906;SDS011;50075;49.484;11.238;2022-09-03T03:22:35;30.55;;;4.82;;
63906;SDS011;50075;49.484;11.238;2022-09-03T03:25:00;32.03;;;4.93;;
63906;SDS011;50075;49.484;11.238;2022-09-03T03:27:26;40.30;;;5.30;;
63906;SDS011;50075;49.484;11.238;2022-09-03T03:29:51;35.42;;;5.50;;
63906;SDS011;50075;49.484;11.238;2022-09-03T03:32:18;34.15;;;5.22;;
63906;SDS011;50075;49.484;11.238;2022-09-03T03:34:44;30.13;;;5.10;;
63906;SDS011;50075;49.484;11.238;2022-09-03T03:37:09;33.20;;;4.95;;
63906;SDS011;50075;49.484;11.238;2022-09-03T03:39:34;29.23;;;4.75;;
63906;SDS011;50075;49.484;11.238;2022-09-03T03:42:00;36.90;;;5.50;;
63906;SDS011;50075;49.484;11.238;2022-09-03T03:44:25;26.17;;;4.65;;
63906;SDS011;50075;49.484;11.238;2022-09-03T03:46:51;26.20;;;4.40;;
63906;SDS011;50075;49.484;11.238;2022-09-03T03:49:16;27.30;;;4.63;;
63906;SDS011;50075;49.484;11.238;2022-09-03T03:51:41;25.05;;;4.65;;
63906;SDS011;50075;49.484;11.238;2022-09-03T03:54:07;36.70;;;5.25;;
63906;SDS011;50075;49.484;11.238;2022-09-03T03:56:32;24.30;;;4.30;;
63906;SDS011;50075;49.484;11.238;2022-09-03T03:58:59;35.03;;;5.25;;
63906;SDS011;50075;49.484;11.238;2022-09-03T04:01:25;25.77;;;4.30;;
63906;SDS011;50075;49.484;11.238;2022-09-03T04:03:53;22.95;;;3.97;;
63906;SDS011;50075;49.484;11.238;2022-09-03T04:06:19;37.03;;;5.47;;
63906;SDS011;50075;49.484;11.238;2022-09-03T04:08:46;30.02;;;4.75;;
63906;SDS011;50075;49.484;11.238;2022-09-03T04:11:14;32.25;;;4.72;;
63906;SDS011;50075;49.484;11.238;2022-09-03T04:13:45;24.67;;;4.73;;
63906;SDS011;50075;49.484;11.238;2022-09-03T04:16:12;25.65;;;4.43;;
63906;SDS011;50075;49.484;11.238;2022-09-03T04:18:39;25.42;;;4.40;;
63906;SDS011;50075;49.484;11.238;2022-09-03T04:23:36;27.17;;;4.63;;
63906;SDS011;50075;49.484;11.238;2022-09-03T04:26:04;27.27;;;4.65;;
63906;SDS011;50075;49.484;11.238;2022-09-03T04:28:30;34.85;;;5.35;;
63906;SDS011;50075;49.484;11.238;2022-09-03T04:31:03;30.48;;;5.07;;
63906;SDS011;50075;49.484;11.238;2022-09-03T04:33:30;36.97;;;5.35;;
63906;SDS011;50075;49.484;11.238;2022-09-03T04:38:36;25.25;;;4.45;;
63906;SDS011;50075;49.484;11.238;2022-09-03T04:41:03;29.77;;;4.65;;
63906;SDS011;50075;49.484;11.238;2022-09-03T04:43:30;32.20;;;4.97;;
63906;SDS011;50075;49.484;11.238;2022-09-03T04:45:56;27.27;;;4.47;;
63906;SDS011;50075;49.484;11.238;2022-09-03T04:48:23;20.42;;;3.92;;
63906;SDS011;50075;49.484;11.238;2022-09-03T04:50:48;26.67;;;4.65;;
63906;SDS011;50075;49.484;11.238;2022-09-03T04:53:14;27.35;;;4.55;;
63906;SDS011;50075;49.484;11.238;2022-09-03T04:55:39;32.22;;;5.10;;
63906;SDS011;50075;49.484;11.238;2022-09-03T04:58:05;23.70;;;4.15;;
63906;SDS011;50075;49.484;11.238;2022-09-03T05:00:34;26.90;;;4.57;;
63906;SDS011;50075;49.484;11.238;2022-09-03T05:03:01;24.27;;;4.30;;
63906;SDS011;50075;49.484;11.238;2022-09-03T05:05:28;23.27;;;4.38;;
63906;SDS011;50075;49.484;11.238;2022-09-03T05:07:58;30.92;;;4.88;;
63906;SDS011;50075;49.484;11.238;2022-09-03T05:10:26;29.13;;;4.68;;
63906;SDS011;50075;49.484;11.238;2022-09-03T05:13:01;32.15;;;5.15;;
63906;SDS011;50075;49.484;11.238;2022-09-03T05:15:29;28.08;;;4.53;;
63906;SDS011;50075;49.484;11.238;2022-09-03T05:17:59;37.70;;;5.25;;
63906;SDS011;50075;49.484;11.238;2022-09-03T05:20:27;26.15;;;4.47;;
63906;SDS011;50075;49.484;11.238;2022-09-03T05:22:54;31.23;;;5.22;;
63906;SDS011;50075;49.484;11.238;2022-09-03T05:25:20;24.35;;;4.05;;
63906;SDS011;50075;49.484;11.238;2022-09-03T05:27:46;26.33;;;4.75;;
63906;SDS011;50075;49.484;11.238;2022-09-03T05:30:12;27.38;;;4.40;;
63906;SDS011;50075;49.484;11.238;2022-09-03T05:32:38;20.88;;;4.18;;
63906;SDS011;50075;49.484;11.238;2022-09-03T05:35:04;24.75;;;4.25;;
63906;SDS011;50075;49.484;11.238;2022-09-03T05:37:29;25.27;;;4.30;;
63906;SDS011;50075;49.484;11.238;2022-09-03T05:39:55;24.80;;;4.07;;
63906;SDS011;50075;49.484;11.238;2022-09-03T05:42:20;25.38;;;4.18;;
63906;SDS011;50075;49.484;11.238;2022-09-03T05:44:46;25.05;;;4.38;;
63906;SDS011;50075;49.484;11.238;2022-09-03T05:47:13;28.77;;;4.32;;
63906;SDS011;50075;49.484;11.238;2022-09-03T05:49:39;23.10;;;4.30;;
63906;SDS011;50075;49.484;11.238;2022-09-03T05:52:04;29.65;;;4.55;;
63906;SDS011;50075;49.484;11.238;2022-09-03T05:54:29;22.75;;;4.00;;
63906;SDS011;50075;49.484;11.238;2022-09-03T05:56:55;22.70;;;4.25;;
63906;SDS011;50075;49.484;11.238;2022-09-03T05:59:20;29.50;;;4.93;;
63906;SDS011;50075;49.484;11.238;2022-09-03T06:01:45;19.63;;;3.70;;
63906;SDS011;50075;49.484;11.238;2022-09-03T06:04:12;20.23;;;4.05;;
63906;SDS011;50075;49.484;11.238;2022-09-03T06:06:39;20.10;;;3.95;;
63906;SDS011;50075;49.484;11.238;2022-09-03T06:09:07;20.23;;;3.80;;
63906;SDS011;50075;49.484;11.238;2022-09-03T06:11:35;21.40;;;3.90;;
63906;SDS011;50075;49.484;11.238;2022-09-03T06:14:03;30.10;;;4.20;;
63906;SDS011;50075;49.484;11.238;2022-09-03T06:16:30;25.67;;;4.35;;
63906;SDS011;50075;49.484;11.238;2022-09-03T06:18:58;26.13;;;4.57;;
63906;SDS011;50075;49.484;11.238;2022-09-03T06:21:24;27.83;;;4.68;;
63906;SDS011;50075;49.484;11.238;2022-09-03T06:23:50;18.23;;;3.55;;
63906;SDS011;50075;49.484;11.238;2022-09-03T06:26:17;16.15;;;4.05;;
63906;SDS011;50075;49.484;11.238;2022-09-03T06:28:43;18.65;;;3.40;;
63906;SDS011;50075;49.484;11.238;2022-09-03T06:31:12;21.67;;;4.00;;
63906;SDS011;50075;49.484;11.238;2022-09-03T06:33:39;24.67;;;4.20;;
63906;SDS011;50075;49.484;11.238;2022-09-03T06:36:07;18.17;;;3.65;;
63906;SDS011;50075;49.484;11.238;2022-09-03T06:38:36;22.88;;;4.07;;
63906;SDS011;50075;49.484;11.238;2022-09-03T06:41:06;22.00;;;4.35;;
63906;SDS011;50075;49.484;11.238;2022-09-03T06:43:37;23.75;;;4.22;;
63906;SDS011;50075;49.484;11.238;2022-09-03T06:46:13;14.70;;;3.30;;
63906;SDS011;50075;49.484;11.238;2022-09-03T06:48:40;23.75;;;4.10;;
63906;SDS011;50075;49.484;11.238;2022-09-03T06:51:07;23.90;;;4.22;;
63906;SDS011;50075;49.484;11.238;2022-09-03T06:53:38;20.15;;;3.95;;
63906;SDS011;50075;49.484;11.238;2022-09-03T06:56:06;17.35;;;3.58;;
63906;SDS011;50075;49.484;11.238;2022-09-03T06:58:37;15.90;;;3.33;;
63906;SDS011;50075;49.484;11.238;2022-09-03T07:01:08;20.27;;;4.00;;
63906;SDS011;50075;49.484;11.238;2022-09-03T07:03:33;17.70;;;3.58;;
63906;SDS011;50075;49.484;11.238;2022-09-03T07:06:03;18.27;;;3.80;;
63906;SDS011;50075;49.484;11.238;2022-09-03T07:08:33;16.38;;;3.72;;
63906;SDS011;50075;49.484;11.238;2022-09-03T07:11:08;24.63;;;4.82;;
63906;SDS011;50075;49.484;11.238;2022-09-03T07:13:42;15.68;;;4.10;;
63906;SDS011;50075;49.484;11.238;2022-09-03T07:16:11;15.80;;;3.47;;
63906;SDS011;50075;49.484;11.238;2022-09-03T07:18:44;15.07;;;3.10;;
63906;SDS011;50075;49.484;11.238;2022-09-03T07:21:12;16.20;;;3.38;;
63906;SDS011;50075;49.484;11.238;2022-09-03T07:23:42;14.57;;;3.30;;
63906;SDS011;50075;49.484;11.238;2022-09-03T07:26:09;20.13;;;4.70;;
63906;SDS011;50075;49.484;11.238;2022-09-03T07:28:37;17.25;;;4.28;;
63906;SDS011;50075;49.484;11.238;2022-09-03T07:33:35;12.50;;;3.00;;
63906;SDS011;50075;49.484;11.238;2022-09-03T07:36:02;18.77;;;3.78;;
63906;SDS011;50075;49.484;11.238;2022-09-03T07:38:30;16.73;;;3.47;;
63906;SDS011;50075;49.484;11.238;2022-09-03T07:40:57;16.77;;;3.55;;
63906;SDS011;50075;49.484;11.238;2022-09-03T07:43:24;16.70;;;3.60;;
63906;SDS011;50075;49.484;11.238;2022-09-03T07:45:54;16.67;;;3.35;;
63906;SDS011;50075;49.484;11.238;2022-09-03T07:48:21;21.80;;;4.43;;
63906;SDS011;50075;49.484;11.238;2022-09-03T07:50:47;15.23;;;3.90;;
63906;SDS011;50075;49.484;11.238;2022-09-03T07:53:12;24.05;;;4.30;;
63906;SDS011;50075;49.484;11.238;2022-09-03T07:55:39;17.27;;;3.42;;
63906;SDS011;50075;49.484;11.238;2022-09-03T07:58:05;14.98;;;3.25;;
63906;SDS011;50075;49.484;11.238;2022-09-03T08:00:31;20.95;;;4.03;;
63906;SDS011;50075;49.484;11.238;2022-09-03T08:02:57;18.38;;;3.63;;
63906;SDS011;50075;49.484;11.238;2022-09-03T08:05:30;22.85;;;4.00;;
63906;SDS011;50075;49.484;11.238;2022-09-03T08:07:58;16.75;;;3.65;;
63906;SDS011;50075;49.484;11.238;2022-09-03T08:10:24;20.30;;;4.00;;
63906;SDS011;50075;49.484;11.238;2022-09-03T08:12:52;13.45;;;3.22;;
63906;SDS011;50075;49.484;11.238;2022-09-03T08:15:17;12.98;;;3.15;;
63906;SDS011;50075;49.484;11.238;2022-09-03T08:17:43;13.55;;;3.22;;
63906;SDS011;50075;49.484;11.238;2022-09-03T08:20:09;14.68;;;3.17;;
63906;SDS011;50075;49.484;11.238;2022-09-03T08:22:35;17.33;;;3.60;;
63906;SDS011;50075;49.484;11.238;2022-09-03T08:25:01;12.43;;;3.22;;
63906;SDS011;50075;49.484;11.238;2022-09-03T08:27:27;13.07;;;3.35;;
63906;SDS011;50075;49.484;11.238;2022-09-03T08:29:53;13.65;;;3.40;;
63906;SDS011;50075;49.484;11.238;2022-09-03T08:32:18;13.10;;;3.35;;
63906;SDS011;50075;49.484;11.238;2022-09-03T08:34:44;15.23;;;3.22;;
63906;SDS011;50075;49.484;11.238;2022-09-03T08:37:10;13.32;;;3.35;;
63906;SDS011;50075;49.484;11.238;2022-09-03T08:39:36;14.15;;;3.50;;
63906;SDS011;50075;49.484;11.238;2022-09-03T08:42:09;10.90;;;2.97;;
63906;SDS011;50075;49.484;11.238;2022-09-03T08:44:59;10.68;;;2.92;;
63906;SDS011;50075;49.484;11.238;2022-09-03T08:52:55;15.55;;;3.60;;
63906;SDS011;50075;49.484;11.238;2022-09-03T09:00:37;12.30;;;3.00;;
63906;SDS011;50075;49.484;11.238;2022-09-03T09:08:56;26.35;;;4.50;;
63906;SDS011;50075;49.484;11.238;2022-09-03T09:11:39;19.25;;;3.72;;
63906;SDS011;50075;49.484;11.238;2022-09-03T09:16:53;15.77;;;3.58;;
63906;SDS011;50075;49.484;11.238;2022-09-03T09:22:10;18.80;;;3.83;;
63906;SDS011;50075;49.484;11.238;2022-09-03T09:24:44;24.25;;;3.65;;
63906;SDS011;50075;49.484;11.238;2022-09-03T09:27:12;16.83;;;3.55;;
63906;SDS011;50075;49.484;11.238;2022-09-03T09:29:41;13.38;;;3.15;;
63906;SDS011;50075;49.484;11.238;2022-09-03T09:32:11;20.98;;;3.92;;
63906;SDS011;50075;49.484;11.238;2022-09-03T09:34:40;14.48;;;3.20;;
63906;SDS011;50075;49.484;11.238;2022-09-03T09:37:13;19.17;;;3.72;;
63906;SDS011;50075;49.484;11.238;2022-09-03T09:39:40;13.70;;;3.45;;
63906;SDS011;50075;49.484;11.238;2022-09-03T09:42:20;15.63;;;3.35;;
63906;SDS011;50075;49.484;11.238;2022-09-03T09:44:46;17.42;;;3.22;;
63906;SDS011;50075;49.484;11.238;2022-09-03T09:47:14;22.48;;;3.85;;
63906;SDS011;50075;49.484;11.238;2022-09-03T09:49:59;10.60;;;2.83;;
63906;SDS011;50075;49.484;11.238;2022-09-03T09:52:27;17.75;;;3.85;;
63906;SDS011;50075;49.484;11.238;2022-09-03T09:55:09;19.80;;;3.65;;
63906;SDS011;50075;49.484;11.238;2022-09-03T09:57:38;15.52;;;3.10;;
63906;SDS011;50075;49.484;11.238;2022-09-03T10:00:07;14.85;;;3.05;;
63906;SDS011;50075;49.484;11.238;2022-09-03T10:02:37;18.60;;;3.22;;
63906;SDS011;50075;49.484;11.238;2022-09-03T10:05:22;14.27;;;3.13;;
63906;SDS011;50075;49.484;11.238;2022-09-03T10:07:56;12.75;;;2.97;;
63906;SDS011;50075;49.484;11.238;2022-09-03T10:10:23;12.52;;;3.30;;
63906;SDS011;50075;49.484;11.238;2022-09-03T10:15:42;14.52;;;3.55;;
63906;SDS011;50075;49.484;11.238;2022-09-03T10:24:27;17.43;;;3.33;;
63906;SDS011;50075;49.484;11.238;2022-09-03T10:27:05;15.50;;;3.22;;
63906;SDS011;50075;49.484;11.238;2022-09-03T10:29:37;17.88;;;3.75;;
63906;SDS011;50075;49.484;11.238;2022-09-03T10:45:48;16.02;;;3.63;;
63906;SDS011;50075;49.484;11.238;2022-09-03T10:48:25;15.80;;;3.30;;
63906;SDS011;50075;49.484;11.238;2022-09-03T10:56:33;21.88;;;4.30;;
63906;SDS011;50075;49.484;11.238;2022-09-03T11:05:01;16.90;;;3.42;;
63906;SDS011;50075;49.484;11.238;2022-09-03T11:07:40;15.50;;;3.53;;
63906;SDS011;50075;49.484;11.238;2022-09-03T11:18:11;17.88;;;4.05;;
63906;SDS011;50075;49.484;11.238;2022-09-03T11:20:39;12.50;;;3.22;;
63906;SDS011;50075;49.484;11.238;2022-09-03T11:23:06;18.67;;;3.70;;
63906;SDS011;50075;49.484;11.238;2022-09-03T11:25:34;15.10;;;3.50;;
63906;SDS011;50075;49.484;11.238;2022-09-03T11:33:22;17.80;;;3.95;;
63906;SDS011;50075;49.484;11.238;2022-09-03T11:35:57;14.43;;;3.55;;
63906;SDS011;50075;49.484;11.238;2022-09-03T11:38:25;21.27;;;4.50;;
63906;SDS011;50075;49.484;11.238;2022-09-03T11:45:48;19.70;;;3.78;;
63906;SDS011;50075;49.484;11.238;2022-09-03T11:48:35;18.08;;;3.80;;
63906;SDS011;50075;49.484;11.238;2022-09-03T11:51:18;19.52;;;3.55;;
63906;SDS011;50075;49.484;11.238;2022-09-03T11:53:57;14.43;;;3.60;;
63906;SDS011;50075;49.484;11.238;2022-09-03T11:56:23;20.75;;;4.10;;
63906;SDS011;50075;49.484;11.238;2022-09-03T12:04:12;14.77;;;3.17;;
63906;SDS011;50075;49.484;11.238;2022-09-03T12:20:40;20.33;;;4.25;;
63906;SDS011;50075;49.484;11.238;2022-09-03T12:23:06;14.90;;;3.60;;
63906;SDS011;50075;49.484;11.238;2022-09-03T12:25:35;21.10;;;4.32;;
63906;SDS011;50075;49.484;11.238;2022-09-03T12:28:10;16.52;;;3.90;;
63906;SDS011;50075;49.484;11.238;2022-09-03T12:30:41;21.33;;;4.32;;
63906;SDS011;50075;49.484;11.238;2022-09-03T12:33:06;19.63;;;3.83;;
63906;SDS011;50075;49.484;11.238;2022-09-03T12:35:33;19.63;;;3.95;;
63906;SDS011;50075;49.484;11.238;2022-09-03T12:37:58;16.90;;;3.78;;
63906;SDS011;50075;49.484;11.238;2022-09-03T12:40:28;14.52;;;3.83;;
63906;SDS011;50075;49.484;11.238;2022-09-03T12:42:54;22.63;;;4.63;;
63906;SDS011;50075;49.484;11.238;2022-09-03T12:45:40;19.15;;;4.13;;
63906;SDS011;50075;49.484;11.238;2022-09-03T12:48:14;17.63;;;3.90;;
63906;SDS011;50075;49.484;11.238;2022-09-03T12:50:40;19.67;;;4.15;;
63906;SDS011;50075;49.484;11.238;2022-09-03T12:53:06;17.88;;;4.07;;
63906;SDS011;50075;49.484;11.238;2022-09-03T12:55:37;13.70;;;3.80;;
63906;SDS011;50075;49.484;11.238;2022-09-03T12:58:11;15.15;;;3.90;;
63906;SDS011;50075;49.484;11.238;2022-09-03T13:00:44;14.20;;;3.65;;
63906;SDS011;50075;49.484;11.238;2022-09-03T13:03:43;18.42;;;4.40;;
63906;SDS011;50075;49.484;11.238;2022-09-03T13:06:09;24.00;;;4.40;;
63906;SDS011;50075;49.484;11.238;2022-09-03T13:08:46;19.33;;;4.53;;
63906;SDS011;50075;49.484;11.238;2022-09-03T13:11:17;14.10;;;3.70;;
63906;SDS011;50075;49.484;11.238;2022-09-03T13:14:04;17.75;;;4.10;;
63906;SDS011;50075;49.484;11.238;2022-09-03T13:19:08;21.10;;;4.45;;
63906;SDS011;50075;49.484;11.238;2022-09-03T13:35:20;17.90;;;4.22;;
63906;SDS011;50075;49.484;11.238;2022-09-03T13:37:54;17.38;;;4.15;;
63906;SDS011;50075;49.484;11.238;2022-09-03T13:48:30;20.30;;;4.50;;
63906;SDS011;50075;49.484;11.238;2022-09-03T13:51:29;24.58;;;4.72;;
63906;SDS011;50075;49.484;11.238;2022-09-03T13:59:25;14.43;;;3.85;;
63906;SDS011;50075;49.484;11.238;2022-09-03T14:04:48;18.27;;;4.25;;
63906;SDS011;50075;49.484;11.238;2022-09-03T14:12:43;20.65;;;4.25;;
63906;SDS011;50075;49.484;11.238;2022-09-03T14:15:17;16.60;;;3.95;;
63906;SDS011;50075;49.484;11.238;2022-09-03T14:20:40;23.95;;;5.30;;
63906;SDS011;50075;49.484;11.238;2022-09-03T14:25:51;24.38;;;4.60;;
63906;SDS011;50075;49.484;11.238;2022-09-03T14:28:32;20.35;;;3.55;;
63906;SDS011;50075;49.484;11.238;2022-09-03T14:33:42;19.75;;;4.15;;
63906;SDS011;50075;49.484;11.238;2022-09-03T14:36:25;20.42;;;4.20;;
63906;SDS011;50075;49.484;11.238;2022-09-03T14:47:29;18.10;;;4.00;;
63906;SDS011;50075;49.484;11.238;2022-09-03T14:53:29;18.38;;;4.18;;
63906;SDS011;50075;49.484;11.238;2022-09-03T15:01:19;20.23;;;4.53;;
63906;SDS011;50075;49.484;11.238;2022-09-03T15:07:13;25.67;;;5.28;;
63906;SDS011;50075;49.484;11.238;2022-09-03T15:14:53;18.58;;;4.35;;
63906;SDS011;50075;49.484;11.238;2022-09-03T15:25:52;23.27;;;4.65;;
63906;SDS011;50075;49.484;11.238;2022-09-03T15:34:41;21.05;;;4.60;;
63906;SDS011;50075;49.484;11.238;2022-09-03T15:37:27;25.70;;;4.45;;
63906;SDS011;50075;49.484;11.238;2022-09-03T15:40:02;22.10;;;4.70;;
63906;SDS011;50075;49.484;11.238;2022-09-03T15:42:28;23.35;;;4.95;;
63906;SDS011;50075;49.484;11.238;2022-09-03T15:44:55;18.60;;;4.30;;
63906;SDS011;50075;49.484;11.238;2022-09-03T15:47:31;17.98;;;4.38;;
63906;SDS011;50075;49.484;11.238;2022-09-03T15:50:17;19.70;;;4.75;;
63906;SDS011;50075;49.484;11.238;2022-09-03T15:53:32;19.40;;;4.60;;
63906;SDS011;50075;49.484;11.238;2022-09-03T15:56:03;22.60;;;4.97;;
63906;SDS011;50075;49.484;11.238;2022-09-03T15:58:38;45.88;;;5.95;;
63906;SDS011;50075;49.484;11.238;2022-09-03T16:01:25;22.30;;;4.93;;
63906;SDS011;50075;49.484;11.238;2022-09-03T16:03:57;22.13;;;4.72;;
63906;SDS011;50075;49.484;11.238;2022-09-03T16:06:45;24.77;;;5.20;;
63906;SDS011;50075;49.484;11.238;2022-09-03T16:17:34;14.88;;;4.05;;
63906;SDS011;50075;49.484;11.238;2022-09-03T16:20:24;20.88;;;4.45;;
63906;SDS011;50075;49.484;11.238;2022-09-03T16:23:18;21.17;;;4.85;;
63906;SDS011;50075;49.484;11.238;2022-09-03T16:38:49;27.77;;;5.65;;
63906;SDS011;50075;49.484;11.238;2022-09-03T16:44:06;34.20;;;7.00;;
63906;SDS011;50075;49.484;11.238;2022-09-03T16:50:10;33.10;;;6.55;;
63906;SDS011;50075;49.484;11.238;2022-09-03T17:09:57;33.65;;;5.60;;
63906;SDS011;50075;49.484;11.238;2022-09-03T17:12:28;23.60;;;5.03;;
63906;SDS011;50075;49.484;11.238;2022-09-03T17:25:26;33.13;;;5.43;;
63906;SDS011;50075;49.484;11.238;2022-09-03T17:34:00;25.20;;;4.65;;
63906;SDS011;50075;49.484;11.238;2022-09-03T17:36:33;37.72;;;5.95;;
63906;SDS011;50075;49.484;11.238;2022-09-03T17:41:51;71.80;;;9.75;;
63906;SDS011;50075;49.484;11.238;2022-09-03T17:44:26;35.45;;;6.38;;
63906;SDS011;50075;49.484;11.238;2022-09-03T17:52:12;43.28;;;7.30;;
63906;SDS011;50075;49.484;11.238;2022-09-03T17:55:01;45.70;;;7.15;;
63906;SDS011;50075;49.484;11.238;2022-09-03T17:57:44;56.08;;;7.75;;
63906;SDS011;50075;49.484;11.238;2022-09-03T18:00:27;46.08;;;7.65;;
63906;SDS011;50075;49.484;11.238;2022-09-03T18:03:03;34.60;;;6.53;;
63906;SDS011;50075;49.484;11.238;2022-09-03T18:05:51;46.50;;;7.93;;
63906;SDS011;50075;49.484;11.238;2022-09-03T18:19:45;45.22;;;7.82;;
63906;SDS011;50075;49.484;11.238;2022-09-03T18:25:44;33.25;;;6.55;;
63906;SDS011;50075;49.484;11.238;2022-09-03T18:28:38;25.25;;;5.82;;
63906;SDS011;50075;49.484;11.238;2022-09-03T18:31:29;25.38;;;5.47;;
63906;SDS011;50075;49.484;11.238;2022-09-03T18:34:13;48.20;;;7.78;;
63906;SDS011;50075;49.484;11.238;2022-09-03T18:37:00;37.58;;;7.05;;
63906;SDS011;50075;49.484;11.238;2022-09-03T18:39:44;29.08;;;6.30;;
63906;SDS011;50075;49.484;11.238;2022-09-03T18:42:49;41.13;;;7.20;;
63906;SDS011;50075;49.484;11.238;2022-09-03T18:45:43;44.17;;;7.78;;
63906;SDS011;50075;49.484;11.238;2022-09-03T18:55:14;34.53;;;7.10;;
63906;SDS011;50075;49.484;11.238;2022-09-03T19:10:50;39.75;;;6.47;;
63906;SDS011;50075;49.484;11.238;2022-09-03T19:13:40;35.72;;;7.07;;
63906;SDS011;50075;49.484;11.238;2022-09-03T19:22:37;41.92;;;6.88;;
63906;SDS011;50075;49.484;11.238;2022-09-03T19:25:26;37.55;;;7.07;;
63906;SDS011;50075;49.484;11.238;2022-09-03T19:28:22;30.48;;;6.63;;
63906;SDS011;50075;49.484;11.238;2022-09-03T19:55:15;34.53;;;6.50;;
63906;SDS011;50075;49.484;11.238;2022-09-03T19:58:16;30.08;;;6.25;;
63906;SDS011;50075;49.484;11.238;2022-09-03T20:01:03;46.38;;;7.65;;
63906;SDS011;50075;49.484;11.238;2022-09-03T20:03:48;55.35;;;8.63;;
63906;SDS011;50075;49.484;11.238;2022-09-03T20:06:33;30.92;;;6.53;;
63906;SDS011;50075;49.484;11.238;2022-09-03T20:09:19;36.50;;;6.85;;
63906;SDS011;50075;49.484;11.238;2022-09-03T20:12:08;35.40;;;6.05;;
63906;SDS011;50075;49.484;11.238;2022-09-03T20:14:34;38.50;;;6.50;;
63906;SDS011;50075;49.484;11.238;2022-09-03T20:22:52;26.77;;;6.07;;
63906;SDS011;50075;49.484;11.238;2022-09-03T20:30:51;25.00;;;6.20;;
63906;SDS011;50075;49.484;11.238;2022-09-03T20:33:32;44.53;;;8.13;;
63906;SDS011;50075;49.484;11.238;2022-09-03T20:52:54;40.60;;;8.48;;
63906;SDS011;50075;49.484;11.238;2022-09-03T20:55:42;23.77;;;5.75;;
63906;SDS011;50075;49.484;11.238;2022-09-03T20:58:14;50.42;;;9.30;;
63906;SDS011;50075;49.484;11.238;2022-09-03T21:03:31;53.13;;;9.70;;
63906;SDS011;50075;49.484;11.238;2022-09-03T21:14:37;39.33;;;7.65;;
63906;SDS011;50075;49.484;11.238;2022-09-03T21:23:13;36.83;;;8.48;;
63906;SDS011;50075;49.484;11.238;2022-09-03T21:25:54;47.45;;;9.75;;
63906;SDS011;50075;49.484;11.238;2022-09-03T21:28:48;56.25;;;10.05;;
63906;SDS011;50075;49.484;11.238;2022-09-03T21:34:07;44.20;;;8.97;;
63906;SDS011;50075;49.484;11.238;2022-09-03T21:36:36;45.97;;;8.63;;
63906;SDS011;50075;49.484;11.238;2022-09-03T21:39:25;29.27;;;6.55;;
63906;SDS011;50075;49.484;11.238;2022-09-03T21:44:44;47.95;;;9.90;;
63906;SDS011;50075;49.484;11.238;2022-09-03T21:47:16;46.75;;;11.90;;
63906;SDS011;50075;49.484;11.238;2022-09-03T21:52:36;40.67;;;7.72;;
63906;SDS011;50075;49.484;11.238;2022-09-03T21:55:09;41.85;;;8.35;;
63906;SDS011;50075;49.484;11.238;2022-09-03T22:00:40;38.47;;;8.05;;
63906;SDS011;50075;49.484;11.238;2022-09-03T22:03:07;42.28;;;8.60;;
63906;SDS011;50075;49.484;11.238;2022-09-03T22:05:52;38.22;;;7.57;;
63906;SDS011;50075;49.484;11.238;2022-09-03T22:11:07;60.35;;;11.85;;
63906;SDS011;50075;49.484;11.238;2022-09-03T22:13:42;33.85;;;8.45;;